createdAt,value
2019-02-17T01:23:33.066Z,34.20
2019-02-17T01:26:18.570Z,29.53
2019-02-17T01:29:02.414Z,31.70
2019-02-17T01:32:01.227Z,29.77
2019-02-17T01:34:35.469Z,26.40
2019-02-17T01:37:21.619Z,29.80
2019-02-17T01:40:02.034Z,34.10
2019-02-17T01:42:41.574Z,31.17
2019-02-17T01:45:20.850Z,31.27
2019-02-17T01:47:58.355Z,29.87
2019-02-17T01:50:34.752Z,35.83
2019-02-17T01:53:17.899Z,32.17
2019-02-17T01:55:54.058Z,31.00
2019-02-17T01:58:29.475Z,32.70
2019-02-17T02:01:27.528Z,30.90
2019-02-17T02:04:04.856Z,30.23
2019-02-17T02:06:39.651Z,32.87
2019-02-17T02:09:17.258Z,30.80
2019-02-17T02:11:52.343Z,32.40
2019-02-17T02:14:31.110Z,38.03
2019-02-17T02:17:10.003Z,30.17
2019-02-17T02:19:39.179Z,29.33
2019-02-17T02:22:08.148Z,32.47
2019-02-17T02:24:37.094Z,31.37
2019-02-17T02:27:05.765Z,36.00
2019-02-17T02:29:40.989Z,33.73
2019-02-17T02:32:07.434Z,34.53
2019-02-17T02:34:38.038Z,34.17
2019-02-17T02:37:07.126Z,37.37
2019-02-17T02:39:35.926Z,33.57
2019-02-17T02:42:07.913Z,32.50
2019-02-17T02:44:36.862Z,33.27
2019-02-17T02:47:05.988Z,34.53
2019-02-17T02:49:35.022Z,30.47
2019-02-17T02:52:03.968Z,32.00
2019-02-17T02:54:33.077Z,38.07
2019-02-17T02:57:02.079Z,34.10
2019-02-17T02:59:30.934Z,34.27
2019-02-17T03:01:59.941Z,34.13
2019-02-17T03:04:28.953Z,35.07
2019-02-17T03:07:00.342Z,36.93
2019-02-17T03:09:29.608Z,37.07
2019-02-17T03:11:59.475Z,31.33
2019-02-17T03:14:31.777Z,33.23
2019-02-17T03:17:00.986Z,32.50
2019-02-17T03:19:29.817Z,36.90
2019-02-17T03:21:58.658Z,32.13
2019-02-17T03:24:27.367Z,33.10
2019-02-17T03:26:56.403Z,32.63
2019-02-17T03:29:25.666Z,35.83
2019-02-17T03:31:54.633Z,33.57
2019-02-17T03:34:23.850Z,33.93
2019-02-17T03:36:53.067Z,35.80
2019-02-17T03:39:22.046Z,35.93
2019-02-17T03:41:56.136Z,35.17
2019-02-17T03:44:24.536Z,34.40
2019-02-17T03:46:53.528Z,35.37
2019-02-17T03:49:22.460Z,30.30
2019-02-17T03:51:51.478Z,36.70
2019-02-17T03:54:20.389Z,38.30
2019-02-17T03:56:49.383Z,35.07
2019-02-17T03:59:18.316Z,35.47
2019-02-17T04:01:47.131Z,35.03
2019-02-17T04:04:16.165Z,35.40
2019-02-17T04:06:45.188Z,39.93
2019-02-17T04:09:14.105Z,31.80
2019-02-17T04:11:42.790Z,37.13
2019-02-17T04:14:11.579Z,36.27
2019-02-17T04:16:40.533Z,35.20
2019-02-17T04:19:09.499Z,36.23
2019-02-17T04:21:38.467Z,37.93
2019-02-17T04:24:07.894Z,39.00
2019-02-17T04:26:36.971Z,38.07
2019-02-17T04:29:05.664Z,43.17
2019-02-17T04:31:34.613Z,36.47
2019-02-17T04:34:03.592Z,35.93
2019-02-17T04:36:32.339Z,40.73
2019-02-17T04:39:00.999Z,35.67
2019-02-17T04:41:30.031Z,35.00
2019-02-17T04:43:59.073Z,38.13
2019-02-17T04:46:28.328Z,39.40
2019-02-17T04:48:57.071Z,36.93
2019-02-17T04:51:26.078Z,38.17
2019-02-17T04:53:55.662Z,35.73
2019-02-17T04:56:24.961Z,38.07
2019-02-17T04:58:54.639Z,38.97
2019-02-17T05:01:23.941Z,37.73
2019-02-17T05:03:52.984Z,37.70
2019-02-17T05:06:21.671Z,40.07
2019-02-17T05:08:50.413Z,39.87
2019-02-17T05:11:19.478Z,37.83
2019-02-17T05:13:48.468Z,40.07
2019-02-17T05:16:17.519Z,40.47
2019-02-17T05:18:46.364Z,37.63
2019-02-17T05:21:15.599Z,39.97
2019-02-17T05:23:44.815Z,36.90
2019-02-17T05:26:14.724Z,41.10
2019-02-17T05:28:43.683Z,36.47
2019-02-17T05:31:12.641Z,44.87
2019-02-17T05:33:44.736Z,40.53
2019-02-17T05:36:13.483Z,38.13
2019-02-17T05:38:42.456Z,42.03
2019-02-17T05:41:11.188Z,39.80
2019-02-17T05:43:39.886Z,36.23
2019-02-17T05:46:09.203Z,36.33
2019-02-17T05:48:38.498Z,37.20
2019-02-17T05:51:08.828Z,41.87
2019-02-17T05:53:37.611Z,38.83
2019-02-17T05:56:06.660Z,41.27
2019-02-17T05:58:35.660Z,37.90
2019-02-17T06:01:07.266Z,37.70
2019-02-17T06:03:35.480Z,36.83
2019-02-17T06:06:04.792Z,40.40
2019-02-17T06:08:33.800Z,37.80
2019-02-17T06:11:03.087Z,40.83
2019-02-17T06:13:32.122Z,35.43
2019-02-17T06:16:01.401Z,37.70
2019-02-17T06:18:30.883Z,37.30
2019-02-17T06:21:00.097Z,33.83
2019-02-17T06:23:29.608Z,35.87
2019-02-17T06:26:00.796Z,35.07
2019-02-17T06:28:29.493Z,38.13
2019-02-17T06:30:58.778Z,37.93
2019-02-17T06:33:27.870Z,36.77
2019-02-17T06:35:57.341Z,38.30
2019-02-17T06:38:26.855Z,43.97
2019-02-17T06:40:56.123Z,40.00
2019-02-17T06:43:25.342Z,41.40
2019-02-17T06:45:55.418Z,34.50
2019-02-17T06:48:25.952Z,36.03
2019-02-17T06:50:54.955Z,36.00
2019-02-17T06:53:23.671Z,35.23
2019-02-17T06:56:00.523Z,35.83
2019-02-17T06:58:29.234Z,37.70
2019-02-17T07:01:00.243Z,38.83
2019-02-17T07:03:29.443Z,35.77
2019-02-17T07:06:08.801Z,39.13
2019-02-17T07:08:39.511Z,36.73
2019-02-17T07:11:08.517Z,34.27
2019-02-17T07:13:37.839Z,35.43
2019-02-17T07:16:06.912Z,39.73
2019-02-17T07:18:35.716Z,32.87
2019-02-17T07:21:04.535Z,34.57
2019-02-17T07:23:34.067Z,33.13
2019-02-17T07:26:03.449Z,34.90
2019-02-17T07:28:32.350Z,36.87
2019-02-17T07:31:01.582Z,34.87
2019-02-17T07:33:30.525Z,36.70
2019-02-17T07:35:59.229Z,36.43
2019-02-17T07:38:28.182Z,31.93
2019-02-17T07:40:56.925Z,32.20
2019-02-17T07:43:26.266Z,35.37
2019-02-17T07:45:55.728Z,37.17
2019-02-17T07:48:24.991Z,37.93
2019-02-17T07:50:56.738Z,37.00
2019-02-17T07:53:25.502Z,37.63
2019-02-17T07:55:57.120Z,34.60
2019-02-17T07:58:26.290Z,36.23
2019-02-17T08:00:55.707Z,34.17
2019-02-17T08:03:24.658Z,30.70
2019-02-17T08:05:53.454Z,32.70
2019-02-17T08:08:22.144Z,37.33
2019-02-17T08:10:51.178Z,34.27
2019-02-17T08:13:21.560Z,33.67
2019-02-17T08:15:50.250Z,29.67
2019-02-17T08:18:18.991Z,31.57
2019-02-17T08:20:48.309Z,32.17
2019-02-17T08:23:17.703Z,31.60
2019-02-17T08:25:46.848Z,33.30
2019-02-17T08:28:15.813Z,33.57
2019-02-17T08:30:44.743Z,34.87
2019-02-17T08:33:14.012Z,33.37
2019-02-17T08:35:43.196Z,33.63
2019-02-17T08:38:12.471Z,35.03
2019-02-17T08:40:41.447Z,38.10
2019-02-17T08:43:10.361Z,32.47
2019-02-17T08:45:39.505Z,33.67
2019-02-17T08:48:09.257Z,33.67
2019-02-17T08:50:40.247Z,39.10
2019-02-17T08:53:09.781Z,33.67
2019-02-17T08:55:39.045Z,35.77
2019-02-17T08:58:07.976Z,33.20
2019-02-17T09:00:52.891Z,37.27
2019-02-17T09:03:27.661Z,34.00
2019-02-17T09:06:04.423Z,32.87
2019-02-17T09:09:03.428Z,38.53
2019-02-17T09:11:37.433Z,33.70
2019-02-17T09:14:18.521Z,36.23
2019-02-17T09:16:59.624Z,32.77
2019-02-17T09:19:36.661Z,32.60
2019-02-17T09:22:30.082Z,35.10
2019-02-17T09:24:59.018Z,36.53
2019-02-17T09:27:28.501Z,36.20
2019-02-17T09:29:59.970Z,32.27
2019-02-17T09:32:28.899Z,36.30
2019-02-17T09:34:58.294Z,35.90
2019-02-17T09:37:27.459Z,35.17
2019-02-17T09:39:56.807Z,38.57
2019-02-17T09:42:25.914Z,38.90
2019-02-17T09:44:55.027Z,32.23
2019-02-17T09:47:28.741Z,37.67
2019-02-17T09:50:04.452Z,42.40
2019-02-17T09:52:36.501Z,38.20
2019-02-17T09:55:06.056Z,35.23
2019-02-17T09:57:39.837Z,33.23
2019-02-17T10:00:06.574Z,36.70
2019-02-17T10:02:36.315Z,40.47
2019-02-17T10:05:09.056Z,40.47
2019-02-17T10:07:38.857Z,37.80
2019-02-17T10:10:20.727Z,37.10
2019-02-17T10:12:49.817Z,35.67
2019-02-17T10:15:21.823Z,37.47
2019-02-17T10:17:50.507Z,39.83
2019-02-17T10:20:19.520Z,38.00
2019-02-17T10:22:50.129Z,37.20
2019-02-17T10:25:19.071Z,38.80
2019-02-17T10:27:48.312Z,41.70
2019-02-17T10:30:17.082Z,37.47
2019-02-17T10:32:46.070Z,40.47
2019-02-17T10:35:14.854Z,42.30
2019-02-17T10:37:43.793Z,42.77
2019-02-17T10:40:13.608Z,40.83
2019-02-17T10:42:42.271Z,42.63
2019-02-17T10:45:11.502Z,39.47
2019-02-17T10:47:40.194Z,47.37
2019-02-17T10:50:09.703Z,39.57
2019-02-17T10:52:38.468Z,41.20
2019-02-17T10:55:07.819Z,40.90
2019-02-17T10:57:36.828Z,42.27
2019-02-17T11:00:07.883Z,43.93
2019-02-17T11:02:46.379Z,40.20
2019-02-17T11:05:07.863Z,43.37
2019-02-17T11:07:36.786Z,41.03
2019-02-17T11:10:08.338Z,35.40
2019-02-17T11:12:37.281Z,42.17
2019-02-17T11:15:09.665Z,41.87
2019-02-17T11:17:38.700Z,40.93
2019-02-17T11:20:10.208Z,42.20
2019-02-17T11:22:38.882Z,43.93
2019-02-17T11:25:07.877Z,38.80
2019-02-17T11:27:36.832Z,41.10
2019-02-17T11:30:06.788Z,38.93
2019-02-17T11:32:35.821Z,41.83
2019-02-17T11:35:05.287Z,39.57
2019-02-17T11:37:34.197Z,38.20
2019-02-17T11:40:02.965Z,42.70
2019-02-17T11:42:31.661Z,41.27
2019-02-17T11:45:00.965Z,47.30
2019-02-17T11:47:30.123Z,44.07
2019-02-17T11:49:58.777Z,43.83
2019-02-17T11:52:27.408Z,41.43
2019-02-17T11:54:56.602Z,44.23
2019-02-17T11:57:25.372Z,43.87
2019-02-17T11:59:54.286Z,38.80
2019-02-17T12:02:25.331Z,51.43
2019-02-17T12:04:53.564Z,40.63
2019-02-17T12:07:22.475Z,35.07
2019-02-17T12:09:51.353Z,39.70
2019-02-17T12:12:20.297Z,37.13
2019-02-17T12:14:49.222Z,38.50
2019-02-17T12:17:17.916Z,42.30
2019-02-17T12:19:46.576Z,32.73
2019-02-17T12:22:20.410Z,44.80
2019-02-17T12:25:14.903Z,33.23
2019-02-17T12:28:01.633Z,34.70
2019-02-17T12:30:30.579Z,33.20
2019-02-17T12:32:59.800Z,34.90
2019-02-17T12:35:28.769Z,31.47
2019-02-17T12:37:57.650Z,34.17
2019-02-17T12:40:26.793Z,34.63
2019-02-17T12:42:55.481Z,33.37
2019-02-17T12:45:24.478Z,34.77
2019-02-17T12:47:57.888Z,36.20
2019-02-17T12:50:23.797Z,29.97
2019-02-17T12:52:52.944Z,29.77
2019-02-17T12:55:21.865Z,33.70
2019-02-17T12:57:50.802Z,29.13
2019-02-17T13:00:19.544Z,32.50
2019-02-17T13:02:48.477Z,30.37
2019-02-17T13:05:17.666Z,31.03
2019-02-17T13:07:46.585Z,28.93
2019-02-17T13:10:15.537Z,30.17
2019-02-17T13:12:44.471Z,29.07
2019-02-17T13:15:13.496Z,28.30
2019-02-17T13:17:42.502Z,26.67
2019-02-17T13:20:12.791Z,25.87
2019-02-17T13:22:41.476Z,30.20
2019-02-17T13:25:10.925Z,23.97
2019-02-17T13:27:39.844Z,27.43
2019-02-17T13:30:12.105Z,26.53
2019-02-17T13:32:41.977Z,23.97
2019-02-17T13:35:11.437Z,23.10
2019-02-17T13:37:40.152Z,27.10
2019-02-17T13:40:10.197Z,27.67
2019-02-17T13:42:39.130Z,26.90
2019-02-17T13:45:09.375Z,25.10
2019-02-17T13:47:38.600Z,22.07
2019-02-17T13:50:09.236Z,22.73
2019-02-17T13:52:42.177Z,29.47
2019-02-17T13:55:20.692Z,32.20
2019-02-17T13:57:52.279Z,29.33
2019-02-17T14:00:20.539Z,29.10
2019-02-17T14:02:49.307Z,24.27
2019-02-17T14:05:18.248Z,29.50
2019-02-17T14:07:46.974Z,29.30
2019-02-17T14:10:15.974Z,29.50
2019-02-17T14:12:44.656Z,31.57
2019-02-17T14:15:14.141Z,30.67
2019-02-17T14:17:43.362Z,27.70
2019-02-17T14:20:12.322Z,31.20
2019-02-17T14:22:41.059Z,31.70
2019-02-17T14:25:11.065Z,26.70
2019-02-17T14:27:40.419Z,24.67
2019-02-17T14:30:10.634Z,29.90
2019-02-17T14:32:39.787Z,27.47
2019-02-17T14:35:08.776Z,30.33
2019-02-17T14:37:37.952Z,33.77
2019-02-17T14:40:06.855Z,30.50
2019-02-17T14:42:35.513Z,31.93
2019-02-17T14:45:04.418Z,25.60
2019-02-17T14:47:36.105Z,30.40
2019-02-17T14:50:05.296Z,30.87
2019-02-17T14:52:34.200Z,29.97
2019-02-17T14:55:02.871Z,27.53
2019-02-17T14:57:32.286Z,30.00
2019-02-17T15:00:00.990Z,28.00
2019-02-17T15:02:30.237Z,30.13
2019-02-17T15:04:59.145Z,38.43
2019-02-17T15:07:28.078Z,34.97
2019-02-17T15:09:56.738Z,33.07
2019-02-17T15:12:25.919Z,25.43
2019-02-17T15:14:54.833Z,30.73
2019-02-17T15:17:24.015Z,31.07
2019-02-17T15:19:52.934Z,30.83
2019-02-17T15:22:22.093Z,28.80
2019-02-17T15:24:51.280Z,30.83
2019-02-17T15:27:19.951Z,31.47
2019-02-17T15:29:49.116Z,34.70
2019-02-17T15:32:18.283Z,29.27
2019-02-17T15:34:47.074Z,38.10
2019-02-17T15:37:16.011Z,36.40
2019-02-17T15:39:44.662Z,37.97
2019-02-17T15:42:13.570Z,33.87
2019-02-17T15:44:44.333Z,32.53
2019-02-17T15:47:12.961Z,37.20
2019-02-17T15:49:41.642Z,33.57
2019-02-17T15:52:10.571Z,44.73
2019-02-17T15:54:39.483Z,36.40
2019-02-17T15:57:08.641Z,33.27
2019-02-17T15:59:37.679Z,36.27
2019-02-17T16:02:06.571Z,37.67
2019-02-17T16:04:35.728Z,42.53
2019-02-17T16:07:04.767Z,45.90
2019-02-17T16:09:33.664Z,41.50
2019-02-17T16:12:02.601Z,39.70
2019-02-17T16:14:31.998Z,36.90
2019-02-17T16:17:01.144Z,42.30
2019-02-17T16:19:30.373Z,37.33
2019-02-17T16:21:59.551Z,42.27
2019-02-17T16:24:28.755Z,47.00
2019-02-17T16:26:57.698Z,55.60
2019-02-17T16:29:26.615Z,50.83
2019-02-17T16:31:55.528Z,45.33
2019-02-17T16:34:24.698Z,51.93
2019-02-17T16:36:54.004Z,44.70
2019-02-17T16:39:22.892Z,50.97
2019-02-17T16:41:51.807Z,42.20
2019-02-17T16:44:20.483Z,44.70
2019-02-17T16:46:49.176Z,55.40
2019-02-17T16:49:17.823Z,57.13
2019-02-17T16:51:46.744Z,53.73
2019-02-17T16:54:15.899Z,43.77
2019-02-17T16:56:44.796Z,42.60
2019-02-17T16:59:13.757Z,35.67
2019-02-17T17:01:42.656Z,37.23
2019-02-17T17:04:11.855Z,40.27
2019-02-17T17:06:40.552Z,41.80
2019-02-17T17:09:09.814Z,40.87
2019-02-17T17:11:38.497Z,42.57
2019-02-17T17:14:09.034Z,44.27
2019-02-17T17:16:38.533Z,40.63
2019-02-17T17:19:07.695Z,48.40
2019-02-17T17:21:36.602Z,42.30
2019-02-17T17:24:05.335Z,47.13
2019-02-17T17:26:34.027Z,48.70
2019-02-17T17:29:02.929Z,42.33
2019-02-17T17:31:31.821Z,43.50
2019-02-17T17:34:00.475Z,37.90
2019-02-17T17:36:29.662Z,39.40
2019-02-17T17:38:58.802Z,47.43
2019-02-17T17:41:27.439Z,39.60
2019-02-17T17:43:56.346Z,38.90
2019-02-17T17:46:25.001Z,48.53
2019-02-17T17:48:53.923Z,45.40
2019-02-17T17:51:22.648Z,48.33
2019-02-17T17:53:52.458Z,50.53
2019-02-17T17:56:21.351Z,52.40
2019-02-17T17:58:50.257Z,51.70
2019-02-17T18:01:18.920Z,52.33
2019-02-17T18:03:48.053Z,47.67
2019-02-17T18:06:17.020Z,46.17
2019-02-17T18:08:45.939Z,51.30
2019-02-17T18:11:15.103Z,50.87
2019-02-17T18:13:43.777Z,50.70
2019-02-17T18:16:13.738Z,48.33
2019-02-17T18:18:42.376Z,43.43
2019-02-17T18:21:11.258Z,49.67
2019-02-17T18:23:40.617Z,48.63
2019-02-17T18:26:10.070Z,48.47
2019-02-17T18:28:41.329Z,46.60
2019-02-17T18:31:10.227Z,47.83
2019-02-17T18:33:39.385Z,50.40
2019-02-17T18:36:08.358Z,44.87
2019-02-17T18:38:37.024Z,48.87
2019-02-17T18:41:05.739Z,47.03
2019-02-17T18:43:34.730Z,49.67
2019-02-17T18:46:03.382Z,52.37
2019-02-17T18:48:32.283Z,45.17
2019-02-17T18:51:00.922Z,53.37
2019-02-17T18:53:29.843Z,48.37
2019-02-17T18:55:58.720Z,53.13
2019-02-17T18:58:27.708Z,48.87
2019-02-17T19:00:57.112Z,51.77
2019-02-17T19:03:26.237Z,47.17
2019-02-17T19:05:55.445Z,48.47
2019-02-17T19:08:24.112Z,48.43
2019-02-17T19:10:53.281Z,45.07
2019-02-17T19:13:22.182Z,48.10
2019-02-17T19:15:53.633Z,42.10
2019-02-17T19:18:21.685Z,47.03
2019-02-17T19:20:50.592Z,43.27
2019-02-17T19:23:19.991Z,50.87
2019-02-17T19:25:48.888Z,47.10
2019-02-17T19:28:17.775Z,47.37
2019-02-17T19:30:46.933Z,48.00
2019-02-17T19:33:15.840Z,45.93
2019-02-17T19:35:44.540Z,45.00
2019-02-17T19:38:13.448Z,40.90
2019-02-17T19:40:42.091Z,41.60
2019-02-17T19:43:10.966Z,49.57
2019-02-17T19:45:39.710Z,49.33
2019-02-17T19:48:08.617Z,49.07
2019-02-17T19:50:37.504Z,49.90
2019-02-17T19:53:06.487Z,49.23
2019-02-17T19:55:35.145Z,43.43
2019-02-17T19:58:04.153Z,45.47
2019-02-17T20:00:33.046Z,45.30
2019-02-17T20:03:11.405Z,50.27
2019-02-17T20:05:51.582Z,47.60
2019-02-17T20:08:14.445Z,41.47
2019-02-17T20:10:43.717Z,46.97
2019-02-17T20:13:12.641Z,59.20
2019-02-17T20:15:41.264Z,52.70
2019-02-17T20:18:09.915Z,46.70
2019-02-17T20:20:38.898Z,50.57
2019-02-17T20:23:08.054Z,50.83
2019-02-17T20:25:38.467Z,49.10
2019-02-17T20:28:07.688Z,53.57
2019-02-17T20:30:36.585Z,51.03
2019-02-17T20:33:05.477Z,58.10
2019-02-17T20:35:34.354Z,51.00
2019-02-17T20:38:03.834Z,50.83
2019-02-17T20:40:32.527Z,48.80
2019-02-17T20:43:01.181Z,55.83
2019-02-17T20:45:30.384Z,46.87
2019-02-17T20:47:59.082Z,52.17
2019-02-17T20:50:27.992Z,42.80
2019-02-17T20:52:56.887Z,49.43
2019-02-17T20:55:26.818Z,52.23
2019-02-17T20:57:55.810Z,49.33
2019-02-17T21:00:27.204Z,55.10
2019-02-17T21:02:55.880Z,52.00
2019-02-17T21:05:25.078Z,47.67
2019-02-17T21:07:53.723Z,48.63
2019-02-17T21:10:22.710Z,46.67
2019-02-17T21:12:51.580Z,52.23
2019-02-17T21:15:21.369Z,54.70
2019-02-17T21:17:50.032Z,54.83
2019-02-17T21:20:19.781Z,54.83
2019-02-17T21:22:48.714Z,52.43
2019-02-17T21:25:17.338Z,50.23
2019-02-17T21:27:45.981Z,55.13
2019-02-17T21:30:16.550Z,55.70
2019-02-17T21:32:45.463Z,49.23
2019-02-17T21:35:14.491Z,56.70
2019-02-17T21:37:43.286Z,48.07
2019-02-17T21:40:12.030Z,51.93
2019-02-17T21:42:41.195Z,54.53
2019-02-17T21:45:10.786Z,53.83
2019-02-17T21:47:39.737Z,54.50
2019-02-17T21:50:09.702Z,51.47
2019-02-17T21:52:38.899Z,58.70
2019-02-17T21:55:07.990Z,54.57
2019-02-17T21:57:36.935Z,53.00
2019-02-17T22:00:06.205Z,51.43
2019-02-17T22:02:34.857Z,56.57
2019-02-17T22:05:03.625Z,51.07
2019-02-17T22:07:34.970Z,55.97
2019-02-17T22:10:03.150Z,53.00
2019-02-17T22:12:31.871Z,57.43
2019-02-17T22:15:00.849Z,59.03
2019-02-17T22:17:29.774Z,55.23
2019-02-17T22:19:58.935Z,55.60
2019-02-17T22:22:27.844Z,56.00
2019-02-17T22:24:56.981Z,58.03
2019-02-17T22:27:25.939Z,55.27
2019-02-17T22:29:54.866Z,54.50
2019-02-17T22:32:24.021Z,60.90
2019-02-17T22:34:52.940Z,51.63
2019-02-17T22:37:21.853Z,53.27
2019-02-17T22:39:50.844Z,54.30
2019-02-17T22:42:19.538Z,53.77
2019-02-17T22:44:48.258Z,54.87
2019-02-17T22:47:17.390Z,57.57
2019-02-17T22:49:46.294Z,54.70
2019-02-17T22:52:14.928Z,51.33
2019-02-17T22:54:43.580Z,52.80
2019-02-17T22:57:12.345Z,53.73
2019-02-17T22:59:40.994Z,57.43
2019-02-17T23:02:11.924Z,58.53
2019-02-17T23:04:40.322Z,54.83
2019-02-17T23:07:09.747Z,49.73
2019-02-17T23:09:38.981Z,52.10
2019-02-17T23:12:08.001Z,52.07
2019-02-17T23:14:37.161Z,47.90
2019-02-17T23:17:06.148Z,55.73
2019-02-17T23:19:35.386Z,54.37
2019-02-17T23:22:04.315Z,53.53
2019-02-17T23:24:33.017Z,53.33
2019-02-17T23:27:04.103Z,56.73
2019-02-17T23:29:32.800Z,56.47
2019-02-17T23:32:01.463Z,57.00
2019-02-17T23:34:30.372Z,54.50
2019-02-17T23:37:04.125Z,54.80
2019-02-17T23:39:29.739Z,54.97
2019-02-17T23:41:58.649Z,54.87
2019-02-17T23:44:27.569Z,59.73
2019-02-17T23:46:56.182Z,55.70
2019-02-17T23:49:25.101Z,53.60
2019-02-17T23:51:53.785Z,56.23
2019-02-17T23:54:22.455Z,56.33
2019-02-17T23:56:51.613Z,58.13
2019-02-17T23:59:20.755Z,54.80
